Time;durP1;ratioP1;P1;durP2;ratioP2;P2;SDS_P1;SDS_P2;PMS_P1;PMS_P2;Temp;Humidity;BMP_temperature;BMP_pressure;BME280_temperature;BME280_humidity;BME280_pressure;Samples;Min_cycle;Max_cycle;Signal;HPM_P1;HPM_P2
2023/05/13 00:01:50;;;;;;;9.75;3.70;;;;;;;14.58;45.00;101333.09;5090426;28;20087;-75
2023/05/13 00:04:17;;;;;;;10.80;3.38;;;;;;;14.53;44.98;101325.44;5096552;28;20574;-74
2023/05/13 00:06:44;;;;;;;8.63;2.70;;;;;;;14.51;45.41;101331.81;5100370;28;20113;-74
2023/05/13 00:09:12;;;;;;;15.68;3.72;;;;;;;14.48;45.50;101324.91;5095204;28;20135;-74
2023/05/13 00:11:39;;;;;;;8.50;3.15;;;;;;;14.46;45.48;101326.78;5092205;28;20135;-74
2023/05/13 00:14:28;;;;;;;5.97;3.30;;;;;;;14.42;45.74;101330.56;5085578;28;20067;-75
2023/05/13 00:16:57;;;;;;;11.40;3.10;;;;;;;14.39;45.61;101328.97;5087036;28;20559;-73
2023/05/13 00:19:24;;;;;;;9.98;3.25;;;;;;;14.35;45.79;101332.75;5092235;28;20139;-74
2023/05/13 00:21:52;;;;;;;7.40;3.28;;;;;;;14.31;46.04;101335.69;5091208;28;20052;-74
2023/05/13 00:24:19;;;;;;;8.00;3.55;;;;;;;14.27;46.13;101336.81;5094344;28;20052;-74
2023/05/13 00:26:46;;;;;;;10.65;3.13;;;;;;;14.22;46.24;101334.47;5091101;28;20511;-77
2023/05/13 00:29:14;;;;;;;9.63;3.17;;;;;;;14.19;46.42;101337.31;5073979;28;20449;-73
2023/05/13 00:31:41;;;;;;;10.45;3.67;;;;;;;14.15;46.31;101336.66;5091066;28;20171;-73
2023/05/13 00:34:08;;;;;;;8.07;3.38;;;;;;;14.12;46.57;101334.19;5090461;28;20135;-74
2023/05/13 00:37:32;;;;;;;7.72;3.40;;;;;;;14.07;46.50;101335.44;5095674;28;20633;-73
2023/05/13 00:39:59;;;;;;;9.63;3.45;;;;;;;14.05;46.51;101342.59;5091273;28;20048;-73
2023/05/13 00:42:26;;;;;;;12.50;4.13;;;;;;;14.04;46.86;101339.09;5093098;28;20143;-73
2023/05/13 00:44:54;;;;;;;7.40;3.08;;;;;;;14.03;46.47;101339.22;5094330;28;20056;-73
2023/05/13 00:47:21;;;;;;;12.90;3.20;;;;;;;14.02;46.78;101340.16;5093822;28;20048;-76
2023/05/13 00:49:48;;;;;;;5.82;3.22;;;;;;;14.01;46.98;101344.63;5091586;28;20058;-74
2023/05/13 00:52:15;;;;;;;10.60;3.30;;;;;;;14.02;47.16;101348.97;5093945;28;20127;-74
2023/05/13 01:02:55;;;;;;;9.07;3.10;;;;;;;14.04;46.98;101349.69;5090499;28;20084;-73
2023/05/13 01:05:28;;;;;;;14.10;4.75;;;;;;;14.03;47.05;101349.81;5090418;28;20052;-73
2023/05/13 01:08:19;;;;;;;7.15;3.38;;;;;;;14.02;47.32;101356.91;5089053;28;20052;-74
2023/05/13 01:10:51;;;;;;;6.00;3.40;;;;;;;14.01;47.67;101349.91;5086349;28;20456;-74
2023/05/13 01:13:23;;;;;;;5.60;3.70;;;;;;;14.00;47.26;101352.63;5072942;28;20079;-74
2023/05/13 01:16:18;;;;;;;12.23;3.30;;;;;;;13.99;47.53;101357.06;5072718;28;20123;-73
2023/05/13 01:18:53;;;;;;;8.50;3.60;;;;;;;13.99;47.44;101362.38;5073193;28;20048;-74
2023/05/13 01:21:34;;;;;;;11.15;4.20;;;;;;;13.97;47.22;101358.97;5085425;28;20062;-73
2023/05/13 01:24:02;;;;;;;8.23;3.45;;;;;;;13.92;47.62;101366.38;5086577;28;20145;-74
2023/05/13 01:26:29;;;;;;;8.13;3.53;;;;;;;13.89;47.72;101363.88;5088774;28;20067;-74
2023/05/13 01:28:56;;;;;;;8.90;3.45;;;;;;;13.87;47.70;101373.72;5094042;28;20151;-75
2023/05/13 01:31:24;;;;;;;13.35;3.63;;;;;;;13.85;47.91;101371.16;5092996;28;20059;-73
2023/05/13 01:33:52;;;;;;;9.32;3.85;;;;;;;13.83;47.73;101375.72;5090981;28;20115;-74
2023/05/13 01:36:19;;;;;;;6.43;3.50;;;;;;;13.80;47.81;101369.75;5093045;28;20104;-73
2023/05/13 01:38:47;;;;;;;11.63;3.67;;;;;;;13.77;47.86;101372.56;5090743;28;20044;-73
2023/05/13 01:41:15;;;;;;;10.32;4.30;;;;;;;13.75;48.04;101377.97;5088655;28;20558;-75
2023/05/13 01:43:42;;;;;;;6.63;4.07;;;;;;;13.74;48.34;101380.72;5090042;28;20455;-73
2023/05/13 01:46:12;;;;;;;8.80;3.70;;;;;;;13.69;48.34;101386.28;5088236;28;20665;-73
2023/05/13 01:48:40;;;;;;;8.32;3.60;;;;;;;13.66;48.12;101376.72;5094064;28;20105;-73
2023/05/13 01:51:08;;;;;;;9.75;3.55;;;;;;;13.63;48.71;101378.69;5089003;28;20431;-74
2023/05/13 01:53:35;;;;;;;8.95;3.92;;;;;;;13.59;48.44;101380.66;5080678;28;20054;-73
2023/05/13 01:56:02;;;;;;;7.45;3.75;;;;;;;13.56;48.56;101380.00;5095263;28;20142;-73
2023/05/13 01:58:30;;;;;;;10.93;3.83;;;;;;;13.52;48.52;101374.03;5073508;28;20094;-75
2023/05/13 02:00:57;;;;;;;7.30;4.03;;;;;;;13.50;48.69;101377.72;5081616;28;20693;-72
2023/05/13 02:03:24;;;;;;;8.52;3.75;;;;;;;13.48;48.92;101374.31;5092480;28;20588;-72
2023/05/13 02:05:52;;;;;;;10.77;3.90;;;;;;;13.44;49.02;101384.22;5092795;28;20157;-75
2023/05/13 02:08:21;;;;;;;9.90;3.40;;;;;;;13.43;48.58;101379.88;5090771;28;20171;-73
2023/05/13 02:10:58;;;;;;;11.95;3.85;;;;;;;13.40;48.82;101370.31;5091906;28;20056;-75
2023/05/13 02:13:25;;;;;;;9.20;3.75;;;;;;;13.38;49.07;101382.78;5093326;28;20071;-75
2023/05/13 02:18:49;;;;;;;7.32;4.13;;;;;;;13.31;49.45;101381.44;5089159;28;20131;-74
2023/05/13 02:21:16;;;;;;;5.93;3.90;;;;;;;13.30;49.19;101379.75;5090528;28;20289;-76
2023/05/13 02:23:43;;;;;;;8.13;3.83;;;;;;;13.26;49.69;101378.22;5088395;28;20047;-73
2023/05/13 02:26:10;;;;;;;6.85;3.50;;;;;;;13.20;49.42;101377.69;5094415;28;20051;-75
2023/05/13 02:28:38;;;;;;;11.48;4.15;;;;;;;13.17;49.56;101379.56;5091202;28;20048;-74
2023/05/13 02:31:05;;;;;;;9.65;3.83;;;;;;;13.15;50.02;101378.81;5094717;28;20051;-72
2023/05/13 02:33:32;;;;;;;7.30;3.70;;;;;;;13.15;49.52;101385.91;5093549;28;20052;-72
2023/05/13 02:36:00;;;;;;;7.43;4.13;;;;;;;13.13;50.20;101387.75;5092176;28;20508;-73
2023/05/13 02:38:27;;;;;;;10.48;4.25;;;;;;;13.09;49.62;101381.78;5093158;28;20048;-73
2023/05/13 02:40:54;;;;;;;7.97;3.90;;;;;;;13.10;49.52;101382.63;5090179;28;21402;-73
2023/05/13 02:43:23;;;;;;;7.75;3.47;;;;;;;13.10;49.85;101386.16;5092245;28;20115;-73
2023/05/13 02:45:51;;;;;;;13.30;4.15;;;;;;;13.14;50.29;101386.81;5092400;28;20270;-74
2023/05/13 02:48:18;;;;;;;15.18;4.68;;;;;;;13.14;49.91;101389.44;5093116;28;20059;-74
2023/05/13 02:50:46;;;;;;;8.40;3.67;;;;;;;13.16;50.05;101388.44;5089415;28;20063;-74
2023/05/13 02:53:13;;;;;;;7.68;3.90;;;;;;;13.17;50.02;101386.66;5074775;28;20077;-73
2023/05/13 02:55:40;;;;;;;7.93;4.28;;;;;;;13.20;49.88;101385.63;5091103;28;20133;-74
2023/05/13 02:58:08;;;;;;;22.58;4.70;;;;;;;13.20;49.71;101383.00;5071700;28;20066;-73
2023/05/13 03:00:35;;;;;;;8.73;4.60;;;;;;;13.21;49.84;101392.63;5052841;28;20055;-74
2023/05/13 03:03:02;;;;;;;9.93;4.55;;;;;;;13.21;49.46;101395.25;5089227;28;20134;-73
2023/05/13 03:05:30;;;;;;;7.57;4.03;;;;;;;13.21;49.73;101388.19;5086105;28;20056;-73
2023/05/13 03:07:57;;;;;;;7.70;4.13;;;;;;;13.21;49.59;101389.97;5089443;28;20044;-73
2023/05/13 03:10:24;;;;;;;10.82;4.25;;;;;;;13.20;49.62;101397.06;5084437;28;20051;-74
2023/05/13 03:12:52;;;;;;;8.45;4.28;;;;;;;13.17;49.76;101399.88;5090617;28;20050;-74
2023/05/13 03:15:31;;;;;;;4.57;3.55;;;;;;;13.12;49.88;101402.78;5086131;28;20051;-74
2023/05/13 03:17:59;;;;;;;9.93;3.90;;;;;;;13.09;49.62;101399.44;5091753;28;20560;-73
2023/05/13 03:20:26;;;;;;;9.27;4.13;;;;;;;13.06;49.70;101402.28;5093878;28;20142;-74
2023/05/13 03:22:54;;;;;;;8.82;3.85;;;;;;;13.01;49.66;101399.88;5088236;28;20054;-73
2023/05/13 03:25:21;;;;;;;16.13;4.63;;;;;;;12.97;49.64;101402.78;5073591;28;20048;-74
2023/05/13 03:27:48;;;;;;;9.05;3.78;;;;;;;12.92;49.92;101403.91;5090391;28;20060;-73
2023/05/13 03:30:15;;;;;;;13.20;4.32;;;;;;;12.90;50.07;101407.56;5092957;28;20056;-73
2023/05/13 03:32:42;;;;;;;8.48;4.07;;;;;;;12.88;50.25;101414.75;5082808;28;20467;-74
2023/05/13 03:35:10;;;;;;;5.45;3.30;;;;;;;12.84;50.29;101407.94;5086934;28;20062;-73
2023/05/13 03:37:37;;;;;;;8.80;3.75;;;;;;;12.80;50.02;101415.16;5091904;28;20054;-73
2023/05/13 03:40:05;;;;;;;8.73;5.05;;;;;;;12.76;50.38;101408.34;5091400;28;20062;-73
2023/05/13 03:42:32;;;;;;;23.00;4.45;;;;;;;12.76;50.74;101416.28;5069174;28;20047;-75
2023/05/13 03:44:59;;;;;;;9.57;4.03;;;;;;;12.73;50.62;101412.94;5087517;28;20051;-73
2023/05/13 03:47:27;;;;;;;11.32;4.03;;;;;;;12.71;50.39;101412.19;5091250;28;20044;-74
2023/05/13 03:49:54;;;;;;;12.65;4.57;;;;;;;12.70;50.58;101415.75;5089787;28;20249;-73
2023/05/13 03:52:22;;;;;;;5.47;3.72;;;;;;;12.70;50.59;101408.69;5090181;28;20045;-73
2023/05/13 03:54:49;;;;;;;9.35;4.05;;;;;;;12.69;50.87;101409.59;5091586;28;20659;-72
2023/05/13 03:57:16;;;;;;;10.25;3.65;;;;;;;12.70;50.58;101415.75;5087043;28;20165;-75
2023/05/13 03:59:43;;;;;;;12.18;5.05;;;;;;;12.69;50.60;101420.16;5090582;28;20411;-72
2023/05/13 04:02:10;;;;;;;7.85;4.40;;;;;;;12.71;50.77;101422.75;5089989;28;20052;-73
2023/05/13 04:04:38;;;;;;;6.47;3.85;;;;;;;12.70;51.03;101424.53;5089576;28;20111;-74
2023/05/13 04:07:05;;;;;;;9.45;4.88;;;;;;;12.68;50.57;101435.19;5058456;28;20063;-74
2023/05/13 04:09:32;;;;;;;10.68;4.10;;;;;;;12.70;50.71;101435.13;5089223;28;20045;-73
2023/05/13 04:12:00;;;;;;;7.32;4.28;;;;;;;12.72;51.02;101440.31;5083316;28;20032;-73
2023/05/13 04:14:27;;;;;;;9.88;3.70;;;;;;;12.70;50.89;101445.69;5091947;28;20076;-73
2023/05/13 04:16:54;;;;;;;7.30;4.65;;;;;;;12.72;50.68;101449.06;5092307;28;20381;-73
2023/05/13 04:19:21;;;;;;;7.22;4.07;;;;;;;12.74;50.33;101438.41;5091478;28;20053;-73
2023/05/13 04:21:49;;;;;;;7.38;3.78;;;;;;;12.73;50.96;101453.41;5089475;28;20055;-74
2023/05/13 04:24:16;;;;;;;9.55;4.25;;;;;;;12.74;50.71;101452.47;5091019;28;20054;-73
2023/05/13 04:26:43;;;;;;;7.97;4.03;;;;;;;12.78;50.45;101447.88;5093791;28;20083;-73
2023/05/13 04:29:10;;;;;;;10.23;4.32;;;;;;;12.81;50.39;101456.50;5089070;28;20585;-74
2023/05/13 04:31:38;;;;;;;7.28;4.38;;;;;;;12.88;50.24;101462.31;5092841;28;20047;-73
2023/05/13 04:34:05;;;;;;;10.50;3.70;;;;;;;12.92;49.93;101459.41;5093119;28;20088;-73
2023/05/13 04:36:32;;;;;;;13.55;4.00;;;;;;;12.98;49.62;101465.28;5088487;28;20505;-75
2023/05/13 04:38:59;;;;;;;11.02;4.05;;;;;;;13.02;49.51;101458.91;5093689;28;20529;-73
2023/05/13 04:41:27;;;;;;;7.13;3.60;;;;;;;13.08;49.74;101461.19;5091845;28;20071;-71
2023/05/13 04:43:54;;;;;;;6.68;3.78;;;;;;;13.13;49.81;101461.78;5074020;28;20330;-74
2023/05/13 04:46:21;;;;;;;5.93;3.92;;;;;;;13.16;49.47;101470.41;5091358;28;20464;-73
2023/05/13 04:48:49;;;;;;;10.10;4.43;;;;;;;13.20;49.15;101472.88;5095472;28;20514;-74
2023/05/13 04:51:16;;;;;;;11.82;4.63;;;;;;;13.23;49.41;101472.72;5089516;28;20111;-76
2023/05/13 04:53:44;;;;;;;10.02;3.80;;;;;;;13.29;49.04;101480.31;5093837;28;20047;-74
2023/05/13 04:56:11;;;;;;;10.93;3.88;;;;;;;13.32;49.03;101469.56;5094459;28;20080;-74
2023/05/13 04:58:38;;;;;;;11.18;4.20;;;;;;;13.36;49.19;101477.22;5089455;28;20049;-75
2023/05/13 05:01:06;;;;;;;10.85;4.20;;;;;;;13.40;48.52;101481.41;5093798;28;21042;-74
2023/05/13 05:03:33;;;;;;;8.30;3.92;;;;;;;13.44;48.55;101476.78;5093259;28;20537;-74
2023/05/13 05:06:00;;;;;;;11.77;3.92;;;;;;;13.48;48.22;101488.91;5094373;28;20107;-75
2023/05/13 05:08:28;;;;;;;6.30;4.28;;;;;;;13.52;48.65;101485.16;5095817;28;20086;-73
2023/05/13 05:10:55;;;;;;;8.15;3.65;;;;;;;13.57;48.54;101491.03;5095828;28;20444;-74
2023/05/13 05:13:22;;;;;;;8.07;4.50;;;;;;;13.60;48.17;101482.91;5092043;28;20504;-75
2023/05/13 05:15:49;;;;;;;10.05;3.92;;;;;;;13.66;47.63;101482.56;5097404;28;20064;-74
2023/05/13 05:18:17;;;;;;;8.63;3.85;;;;;;;13.73;47.29;101483.03;5098439;28;20048;-74
2023/05/13 05:20:44;;;;;;;9.07;4.18;;;;;;;13.80;47.32;101481.75;5098246;28;20139;-74
2023/05/13 05:23:11;;;;;;;9.18;3.53;;;;;;;13.88;46.71;101490.09;5096722;28;20090;-74
2023/05/13 05:25:39;;;;;;;10.32;3.65;;;;;;;13.96;46.55;101494.94;5100583;28;20138;-73
2023/05/13 05:28:08;;;;;;;8.77;3.53;;;;;;;14.04;46.38;101497.13;5097385;28;20559;-76
2023/05/13 05:30:38;;;;;;;11.05;3.80;;;;;;;14.13;45.91;101496.56;5096416;28;20072;-74
2023/05/13 05:33:06;;;;;;;9.43;3.55;;;;;;;14.22;45.65;101492.50;5075498;28;20087;-74
2023/05/13 05:35:37;;;;;;;8.15;3.88;;;;;;;14.31;45.74;101495.44;5094524;28;20076;-72
2023/05/13 05:38:06;;;;;;;8.80;3.58;;;;;;;14.38;45.54;101496.78;5089475;28;20056;-72
2023/05/13 05:40:39;;;;;;;5.45;3.17;;;;;;;14.46;45.01;101500.78;5087148;28;20124;-72
2023/05/13 05:43:07;;;;;;;6.30;3.15;;;;;;;14.54;44.82;101506.47;5086550;28;20032;-73
2023/05/13 05:45:34;;;;;;;13.80;3.80;;;;;;;14.62;44.58;101505.06;5088592;28;20048;-73
2023/05/13 05:48:02;;;;;;;7.28;3.00;;;;;;;14.71;44.18;101505.44;5070814;28;20131;-72
2023/05/13 05:50:30;;;;;;;12.18;3.80;;;;;;;14.80;44.14;101508.38;5086879;28;20094;-73
2023/05/13 05:52:58;;;;;;;5.93;3.05;;;;;;;14.88;43.90;101506.09;5067648;28;21360;-74
2023/05/13 05:58:55;;;;;;;5.80;2.85;;;;;;;15.13;43.31;101505.41;5086290;28;20056;-73
2023/05/13 06:01:23;;;;;;;5.53;3.33;;;;;;;15.20;42.86;101505.84;5086080;28;20492;-73
2023/05/13 06:03:50;;;;;;;5.07;3.35;;;;;;;15.31;42.62;101515.75;5085946;28;20511;-72
2023/05/13 06:06:21;;;;;;;12.35;3.53;;;;;;;15.41;42.53;101516.88;5086413;28;20055;-72
2023/05/13 06:08:48;;;;;;;5.10;2.90;;;;;;;15.49;42.65;101517.25;5086356;28;20052;-72
2023/05/13 06:11:15;;;;;;;7.80;3.55;;;;;;;15.58;42.32;101516.63;5085503;28;20041;-75
2023/05/13 06:13:42;;;;;;;7.05;2.72;;;;;;;15.68;42.00;101520.41;5089043;28;20809;-73
2023/05/13 06:16:10;;;;;;;5.65;3.50;;;;;;;15.76;41.72;101519.03;5071282;28;20560;-73
2023/05/13 06:18:37;;;;;;;5.53;3.30;;;;;;;15.84;41.32;101516.72;5067974;28;20048;-72
2023/05/13 06:21:04;;;;;;;5.32;3.38;;;;;;;15.90;41.02;101522.50;5052940;28;20045;-73
2023/05/13 06:23:32;;;;;;;7.22;3.42;;;;;;;15.98;40.92;101510.47;5067198;28;20056;-72
2023/05/13 06:25:59;;;;;;;11.73;4.15;;;;;;;16.10;40.68;101515.81;5084888;28;20040;-73
2023/05/13 06:28:26;;;;;;;4.65;3.08;;;;;;;16.15;40.25;101513.69;5091899;28;20052;-73
2023/05/13 06:30:53;;;;;;;5.78;2.83;;;;;;;16.26;40.14;101512.97;5055032;28;20126;-73
2023/05/13 06:33:21;;;;;;;7.82;3.78;;;;;;;16.33;39.90;101514.25;5089918;28;20384;-73
2023/05/13 06:35:48;;;;;;;7.32;2.83;;;;;;;16.43;39.82;101515.28;5084111;28;20038;-73
2023/05/13 06:38:18;;;;;;;4.13;2.42;;;;;;;16.56;39.75;101511.78;5052763;28;20499;-73
2023/05/13 06:40:45;;;;;;;7.63;3.45;;;;;;;16.70;39.66;101511.66;5082791;28;20058;-73
2023/05/13 06:43:16;;;;;;;6.10;2.97;;;;;;;16.79;39.28;101504.88;5086742;28;20052;-74
2023/05/13 06:45:44;;;;;;;12.30;3.70;;;;;;;16.90;39.04;101505.84;5085736;28;20044;-74
2023/05/13 06:48:12;;;;;;;4.20;2.53;;;;;;;17.03;39.33;101500.50;5087970;28;20740;-72
2023/05/13 06:50:39;;;;;;;8.07;3.22;;;;;;;17.12;38.78;101499.81;5071716;28;20043;-73
2023/05/13 06:53:08;;;;;;;7.82;3.45;;;;;;;17.19;38.44;101503.72;5087596;28;20047;-73
2023/05/13 06:55:40;;;;;;;6.22;3.17;;;;;;;17.28;38.03;101504.00;5087616;28;20625;-72
2023/05/13 06:58:08;;;;;;;4.20;2.70;;;;;;;17.37;37.92;101500.69;5085726;28;20101;-73
2023/05/13 07:00:36;;;;;;;5.90;2.58;;;;;;;17.48;37.71;101499.91;5067974;28;20045;-72
2023/05/13 07:03:04;;;;;;;6.22;2.80;;;;;;;17.57;37.24;101500.06;5086575;28;20038;-72
2023/05/13 07:05:33;;;;;;;7.45;2.75;;;;;;;17.66;37.50;101494.06;5085065;28;21675;-72
2023/05/13 07:08:05;;;;;;;4.05;3.00;;;;;;;17.70;36.86;101497.34;5049632;28;20066;-72
2023/05/13 07:10:33;;;;;;;8.23;3.28;;;;;;;17.77;36.99;101489.75;5087404;28;20066;-72
2023/05/13 07:13:01;;;;;;;3.97;2.22;;;;;;;17.90;36.67;101488.72;5081131;28;20059;-73
2023/05/13 07:15:28;;;;;;;3.83;2.70;;;;;;;18.03;36.56;101493.13;5078667;28;20051;-74
2023/05/13 07:17:55;;;;;;;10.60;3.17;;;;;;;18.05;36.60;101494.69;5082292;28;20052;-74
2023/05/13 07:20:24;;;;;;;9.68;3.17;;;;;;;18.14;36.22;101485.97;5088256;28;20064;-73
2023/05/13 07:22:51;;;;;;;6.60;2.70;;;;;;;18.25;35.90;101481.66;5087186;28;20058;-74
2023/05/13 07:25:18;;;;;;;7.53;2.42;;;;;;;18.36;35.66;101481.66;5084318;28;20052;-74
2023/05/13 07:27:46;;;;;;;4.85;2.45;;;;;;;18.38;35.40;101471.72;5072142;28;20052;-74
2023/05/13 07:30:14;;;;;;;11.00;3.63;;;;;;;18.41;35.08;101471.47;5069177;28;20054;-72
2023/05/13 07:32:41;;;;;;;8.30;2.75;;;;;;;18.48;35.06;101478.88;5082796;28;20040;-71
2023/05/13 07:35:09;;;;;;;7.88;2.55;;;;;;;18.59;34.88;101480.69;5086012;28;20056;-72
2023/05/13 07:37:36;;;;;;;3.80;2.47;;;;;;;18.70;34.80;101477.22;5069840;28;20086;-73
2023/05/13 07:40:07;;;;;;;9.13;2.70;;;;;;;18.84;34.44;101468.94;5089380;28;20722;-72
2023/05/13 07:42:35;;;;;;;7.93;2.80;;;;;;;18.92;33.68;101477.19;5078334;28;20070;-72
2023/05/13 07:45:04;;;;;;;6.60;2.20;;;;;;;19.05;33.63;101470.84;5067731;28;20518;-72
2023/05/13 07:47:32;;;;;;;6.68;2.92;;;;;;;19.11;33.05;101468.53;5070367;28;20081;-72
2023/05/13 07:49:59;;;;;;;6.72;2.15;;;;;;;19.18;31.85;101476.88;5086068;28;20180;-73
2023/05/13 07:52:26;;;;;;;6.70;2.17;;;;;;;19.23;31.72;101472.03;5077441;28;20047;-74
2023/05/13 07:54:54;;;;;;;8.18;2.47;;;;;;;19.30;30.39;101464.34;5045365;28;20056;-73
2023/05/13 07:57:21;;;;;;;6.80;2.80;;;;;;;19.38;29.99;101465.44;5082041;28;20052;-72
2023/05/13 07:59:48;;;;;;;11.38;2.70;;;;;;;19.40;29.99;101459.94;5082011;28;20060;-72
2023/05/13 08:02:16;;;;;;;5.10;2.63;;;;;;;19.45;30.65;101463.06;5085717;28;20047;-72
2023/05/13 08:04:43;;;;;;;7.63;2.95;;;;;;;19.53;30.27;101471.31;5083451;28;20142;-71
2023/05/13 08:07:10;;;;;;;2.95;2.00;;;;;;;19.64;30.40;101476.66;5083547;28;20048;-72
2023/05/13 08:09:37;;;;;;;9.15;2.70;;;;;;;19.69;30.04;101470.91;5082730;28;20840;-72
2023/05/13 08:12:05;;;;;;;5.95;2.28;;;;;;;19.71;30.16;101469.78;5074957;28;20046;-71
2023/05/13 08:14:32;;;;;;;5.22;2.20;;;;;;;19.76;30.62;101457.88;5069299;28;20062;-71
2023/05/13 08:16:59;;;;;;;9.75;2.50;;;;;;;19.80;30.66;101473.53;5086413;28;20056;-73
2023/05/13 08:19:27;;;;;;;5.55;2.70;;;;;;;19.81;30.67;101469.88;5082871;28;20054;-74
2023/05/13 08:21:54;;;;;;;5.80;2.80;;;;;;;19.86;30.64;101467.69;5097372;28;20040;-73
2023/05/13 08:24:21;;;;;;;7.60;2.03;;;;;;;19.90;30.82;101476.25;5077550;28;20059;-71
2023/05/13 08:26:49;;;;;;;4.13;2.42;;;;;;;19.89;30.85;101461.22;5082498;28;20052;-71
2023/05/13 08:29:16;;;;;;;8.93;2.92;;;;;;;19.95;30.87;101468.72;5084274;28;20051;-72
2023/05/13 08:31:43;;;;;;;7.70;2.97;;;;;;;20.05;30.72;101463.44;5084889;28;20052;-71
2023/05/13 08:34:10;;;;;;;9.15;2.67;;;;;;;20.08;30.78;101471.16;5086381;28;20131;-72
2023/05/13 08:36:39;;;;;;;11.27;2.25;;;;;;;20.10;30.58;101472.75;5085443;28;20166;-72
2023/05/13 08:39:07;;;;;;;5.63;2.33;;;;;;;20.17;30.28;101481.06;5074692;28;20052;-74
2023/05/13 08:41:35;;;;;;;6.20;2.50;;;;;;;20.22;29.82;101471.69;5093067;28;20032;-73
2023/05/13 08:44:06;;;;;;;6.90;2.03;;;;;;;20.32;30.24;101479.78;5099172;28;20075;-74
2023/05/13 08:46:37;;;;;;;7.45;3.00;;;;;;;20.38;30.30;101475.72;5096223;28;20028;-73
2023/05/13 08:49:08;;;;;;;8.05;2.35;;;;;;;20.45;30.19;101472.38;5090636;28;20734;-71
2023/05/13 08:51:36;;;;;;;5.25;2.85;;;;;;;20.51;29.92;101479.03;5085609;28;20047;-72
2023/05/13 08:54:03;;;;;;;5.70;2.63;;;;;;;20.51;30.09;101484.38;5087926;28;20056;-72
2023/05/13 08:56:31;;;;;;;4.18;2.55;;;;;;;20.62;30.79;101483.44;5067939;28;20082;-72
2023/05/13 08:58:58;;;;;;;4.47;2.10;;;;;;;20.66;30.79;101488.38;5087450;28;20040;-73
2023/05/13 09:01:26;;;;;;;5.45;2.28;;;;;;;20.73;30.08;101484.19;5070350;28;20055;-72
2023/05/13 09:03:58;;;;;;;5.93;2.50;;;;;;;20.81;29.27;101480.84;5086393;28;20063;-71
2023/05/13 09:06:26;;;;;;;3.50;2.03;;;;;;;20.80;28.67;101479.13;5086535;28;20961;-71
2023/05/13 09:08:54;;;;;;;9.55;2.55;;;;;;;20.80;28.71;101489.00;5085445;28;21399;-72
2023/05/13 09:11:22;;;;;;;4.88;2.35;;;;;;;20.88;28.53;101479.31;5088517;28;20052;-72
2023/05/13 09:13:57;;;;;;;6.13;2.45;;;;;;;20.97;28.21;101456.22;5086638;28;20488;-72
2023/05/13 09:16:26;;;;;;;6.20;1.95;;;;;;;20.95;28.35;101475.13;5085460;28;20056;-71
2023/05/13 09:18:58;;;;;;;8.38;2.50;;;;;;;21.02;28.86;101467.38;5086886;28;20054;-73
2023/05/13 09:21:34;;;;;;;11.23;3.30;;;;;;;21.15;29.02;101467.97;5088749;28;20060;-72
2023/05/13 09:24:16;;;;;;;4.75;2.08;;;;;;;21.31;29.58;101467.47;5086835;28;20078;-71
2023/05/13 09:26:45;;;;;;;5.25;2.40;;;;;;;21.42;27.77;101467.31;5071702;28;20135;-71
2023/05/13 09:29:22;;;;;;;7.55;2.28;;;;;;;21.43;27.81;101458.31;5089428;28;20699;-72
2023/05/13 09:31:54;;;;;;;11.75;2.35;;;;;;;21.52;27.85;101453.06;5086471;28;20052;-72
2023/05/13 09:34:33;;;;;;;8.80;2.40;;;;;;;21.60;27.31;101461.25;5088207;28;20048;-73
2023/05/13 09:37:05;;;;;;;6.50;2.58;;;;;;;21.63;27.08;101451.09;5069074;28;20140;-73
2023/05/13 09:39:37;;;;;;;6.93;2.45;;;;;;;21.59;27.22;101460.41;5085961;28;20036;-73
2023/05/13 09:42:05;;;;;;;8.15;2.60;;;;;;;21.62;28.06;101468.19;5069779;28;20525;-74
2023/05/13 09:44:32;;;;;;;4.95;2.25;;;;;;;21.68;26.96;101469.44;5085574;28;20048;-73
2023/05/13 09:47:01;;;;;;;5.95;2.30;;;;;;;21.87;26.15;101452.47;5082541;28;20048;-73
2023/05/13 09:49:30;;;;;;;5.32;2.17;;;;;;;21.98;25.18;101453.19;5050858;28;20083;-72
2023/05/13 09:51:57;;;;;;;5.95;2.10;;;;;;;22.09;25.19;101452.16;5085194;28;20048;-72
2023/05/13 09:54:26;;;;;;;3.88;2.03;;;;;;;22.21;25.63;101447.50;5084115;28;20052;-73
2023/05/13 09:56:57;;;;;;;7.00;2.10;;;;;;;;;;5070800;28;20081;-73
2023/05/13 09:59:24;;;;;;;4.68;2.15;;;;;;;22.45;24.04;101452.34;5084697;28;20487;-72
2023/05/13 10:01:53;;;;;;;9.90;2.40;;;;;;;22.37;23.38;101438.81;5087095;28;20078;-73
2023/05/13 10:04:22;;;;;;;8.38;2.00;;;;;;;22.19;23.95;101444.09;5086620;28;20475;-73
2023/05/13 10:06:49;;;;;;;6.78;2.25;;;;;;;22.26;25.01;101437.19;5083393;28;20052;-72
2023/05/13 10:09:17;;;;;;;7.03;2.38;;;;;;;22.50;24.53;101444.69;5069591;28;20044;-72
2023/05/13 10:11:46;;;;;;;17.63;2.83;;;;;;;22.58;23.20;101449.34;5084302;28;20066;-73
2023/05/13 10:14:14;;;;;;;10.80;2.20;;;;;;;22.63;23.37;101441.69;5085291;28;20079;-73
2023/05/13 10:16:41;;;;;;;3.05;1.85;;;;;;;22.69;23.86;101454.50;5080990;28;20439;-73
2023/05/13 10:19:09;;;;;;;4.40;2.33;;;;;;;22.80;23.78;101438.19;5085579;28;20052;-72
2023/05/13 10:21:37;;;;;;;6.85;2.13;;;;;;;22.75;23.12;101427.91;5086802;28;20059;-72
2023/05/13 10:24:05;;;;;;;6.32;2.30;;;;;;;22.74;23.14;101434.28;5067375;28;20120;-71
2023/05/13 10:26:33;;;;;;;8.80;2.22;;;;;;;22.87;22.88;101446.47;5086311;28;20113;-71
2023/05/13 10:29:01;;;;;;;8.02;2.33;;;;;;;23.06;22.94;101440.19;5069399;28;20044;-72
2023/05/13 10:31:28;;;;;;;3.88;2.05;;;;;;;23.27;23.44;101439.88;5084518;28;20044;-72
2023/05/13 10:33:56;;;;;;;6.40;2.42;;;;;;;23.37;22.84;101443.34;5071208;28;20054;-71
2023/05/13 10:36:33;;;;;;;10.32;2.28;;;;;;;23.30;22.33;101436.91;5087763;28;20492;-71
2023/05/13 10:39:09;;;;;;;6.80;2.13;;;;;;;23.35;22.54;101443.50;5081481;28;20144;-71
2023/05/13 10:42:07;;;;;;;4.78;2.70;;;;;;;23.50;23.18;101441.09;5088665;28;20051;-71
2023/05/13 10:44:35;;;;;;;4.95;2.60;;;;;;;23.69;23.25;101435.59;5087694;28;20070;-72
2023/05/13 10:47:02;;;;;;;6.50;2.15;;;;;;;23.79;22.95;101426.59;5084283;28;20143;-73
2023/05/13 10:49:33;;;;;;;5.55;2.20;;;;;;;23.69;22.59;101432.91;5087597;28;20046;-71
2023/05/13 10:52:10;;;;;;;6.70;1.70;;;;;;;23.84;23.03;101441.25;5086361;28;20532;-72
2023/05/13 10:54:40;;;;;;;5.18;1.90;;;;;;;23.91;21.90;101438.75;5073425;28;20051;-72
2023/05/13 10:57:08;;;;;;;2.63;1.67;;;;;;;23.96;22.38;101440.00;5069929;28;20131;-72
2023/05/13 10:59:37;;;;;;;10.57;2.15;;;;;;;24.04;21.58;101425.75;5087072;28;20151;-72
2023/05/13 11:02:20;;;;;;;7.90;2.00;;;;;;;24.02;21.88;101435.84;5086385;28;20074;-73
2023/05/13 11:04:59;;;;;;;7.60;2.33;;;;;;;24.14;21.43;101418.44;5084302;28;20246;-72
2023/05/13 11:07:29;;;;;;;3.50;1.83;;;;;;;24.03;21.04;101431.28;5089386;28;20090;-72
2023/05/13 11:09:58;;;;;;;9.10;2.05;;;;;;;24.12;21.75;101425.78;5087069;28;20047;-72
2023/05/13 11:12:25;;;;;;;6.57;1.90;;;;;;;24.25;21.23;101438.81;5086629;28;20439;-72
2023/05/13 11:14:56;;;;;;;4.90;2.28;;;;;;;24.30;21.67;101430.28;5085792;28;20143;-72
2023/05/13 11:17:23;;;;;;;5.20;2.00;;;;;;;24.49;21.69;101427.34;5081995;28;20055;-72
2023/05/13 11:19:52;;;;;;;3.47;1.95;;;;;;;24.64;21.96;101425.75;5086467;28;20059;-72
2023/05/13 11:22:21;;;;;;;9.60;2.22;;;;;;;24.81;21.46;101431.16;5085484;28;20047;-73
2023/05/13 11:25:20;;;;;;;3.88;1.63;;;;;;;24.95;21.94;101420.63;5078202;28;20062;-71
2023/05/13 11:27:48;;;;;;;9.10;2.28;;;;;;;24.94;21.19;101418.09;5014601;28;20043;-74
2023/05/13 11:30:23;;;;;;;2.88;1.75;;;;;;;24.87;20.89;101426.00;5084049;28;20058;-72
2023/05/13 11:32:51;;;;;;;8.50;2.05;;;;;;;24.87;21.31;101426.00;5068236;28;20048;-71
2023/05/13 11:35:19;;;;;;;4.30;1.80;;;;;;;24.94;20.98;101416.22;5085732;28;20079;-72
2023/05/13 11:37:48;;;;;;;5.95;2.22;;;;;;;24.92;21.35;101410.19;5086945;28;20066;-72
2023/05/13 11:40:29;;;;;;;3.25;2.10;;;;;;;24.99;21.88;101427.38;5083607;28;20126;-72
2023/05/13 11:42:57;;;;;;;3.42;1.98;;;;;;;25.20;21.93;101431.47;5083969;28;20066;-73
2023/05/13 11:45:25;;;;;;;8.98;1.98;;;;;;;25.16;20.07;101420.19;5084398;28;20949;-73
2023/05/13 11:47:53;;;;;;;5.20;1.80;;;;;;;25.31;20.38;101409.59;5050925;28;20048;-72